Time;durP1;ratioP1;P1;durP2;ratioP2;P2;SDS_P1;SDS_P2;PMS_P1;PMS_P2;Temp;Humidity;BMP_temperature;BMP_pressure;BME280_temperature;BME280_humidity;BME280_pressure;Samples;Min_cycle;Max_cycle;Signal;HPM_P1;HPM_P2
2022/06/01 00:01:07;;;;;;;12.73;9.20;;;8.30;99.90;;;;;;4999086;28;20346;-72
2022/06/01 00:03:38;;;;;;;20.65;9.25;;;8.20;99.90;;;;;;5000482;28;20502;-72
2022/06/01 00:06:05;;;;;;;15.75;9.90;;;8.30;99.90;;;;;;5016100;28;20054;-72
2022/06/01 00:08:33;;;;;;;18.15;11.70;;;8.30;99.90;;;;;;5016631;28;20042;-72
2022/06/01 00:11:01;;;;;;;;;;;8.30;99.90;;;;;;5017305;28;20455;-72
2022/06/01 00:13:29;;;;;;;19.20;9.73;;;8.20;99.90;;;;;;5015696;28;19933;-72
2022/06/01 00:15:57;;;;;;;;;;;8.20;99.90;;;;;;5017101;28;20062;-72
2022/06/01 00:18:25;;;;;;;15.73;10.02;;;8.20;99.90;;;;;;4999573;28;19921;-73
2022/06/01 00:20:53;;;;;;;15.32;10.18;;;8.20;99.90;;;;;;5015469;28;20475;-72
2022/06/01 00:23:21;;;;;;;17.05;9.50;;;8.20;99.90;;;;;;5016895;28;20348;-73
2022/06/01 00:25:49;;;;;;;;;;;8.20;99.90;;;;;;5015824;28;20371;-72
2022/06/01 00:28:17;;;;;;;;;;;8.20;99.90;;;;;;5016945;28;19921;-72
2022/06/01 00:30:45;;;;;;;17.58;9.75;;;8.20;99.90;;;;;;5016899;28;19921;-73
2022/06/01 00:33:13;;;;;;;19.75;9.45;;;8.30;99.90;;;;;;4998301;28;20511;-73
2022/06/01 00:35:40;;;;;;;18.63;10.18;;;8.30;99.90;;;;;;4999449;28;20053;-72
2022/06/01 00:38:09;;;;;;;15.70;10.25;;;8.30;99.90;;;;;;5016171;28;20375;-73
2022/06/01 00:40:39;;;;;;;19.80;11.05;;;8.30;99.90;;;;;;4998120;28;20464;-72
2022/06/01 00:43:36;;;;;;;;;;;8.30;99.90;;;;;;5016662;28;20050;-72
2022/06/01 00:46:04;;;;;;;15.82;10.65;;;8.30;99.90;;;;;;5006540;28;19921;-72
2022/06/01 00:48:33;;;;;;;17.02;10.88;;;8.30;99.90;;;;;;5015883;28;20041;-73
2022/06/01 00:51:04;;;;;;;22.30;12.57;;;8.30;99.90;;;;;;5016194;28;20049;-72
2022/06/01 00:53:34;;;;;;;22.88;13.00;;;8.20;99.90;;;;;;5015256;28;20052;-72
2022/06/01 00:56:10;;;;;;;28.73;15.48;;;8.20;99.90;;;;;;5033392;28;20068;-73
2022/06/01 00:58:40;;;;;;;22.27;14.73;;;8.20;99.90;;;;;;5035744;28;20376;-72
2022/06/01 01:01:13;;;;;;;27.55;17.85;;;8.30;99.90;;;;;;5033523;28;20049;-72
2022/06/01 01:03:43;;;;;;;21.67;14.50;;;8.30;99.90;;;;;;5035756;28;20060;-73
2022/06/01 01:06:11;;;;;;;22.95;13.48;;;8.30;99.90;;;;;;5034209;28;20501;-72
2022/06/01 01:08:40;;;;;;;20.35;12.88;;;8.30;99.90;;;;;;5035425;28;20045;-73
2022/06/01 01:11:13;;;;;;;15.55;10.32;;;8.30;99.90;;;;;;5035580;28;20050;-73
2022/06/01 01:13:45;;;;;;;14.88;10.38;;;8.20;99.90;;;;;;5033352;28;20049;-73
2022/06/01 01:16:15;;;;;;;11.95;8.40;;;8.20;99.90;;;;;;5034642;28;20038;-72
2022/06/01 01:18:45;;;;;;;17.45;8.18;;;8.20;99.90;;;;;;5035345;28;20049;-72
2022/06/01 01:21:35;;;;;;;14.23;8.65;;;8.10;99.90;;;;;;5035377;28;20037;-73
2022/06/01 01:24:17;;;;;;;13.27;8.45;;;8.10;99.90;;;;;;5035292;28;20052;-72
2022/06/01 01:26:50;;;;;;;11.70;7.40;;;8.10;99.90;;;;;;5033483;28;20056;-73
2022/06/01 01:29:51;;;;;;;13.93;8.13;;;8.00;99.90;;;;;;5034692;28;20049;-72
2022/06/01 01:32:18;;;;;;;16.88;7.75;;;7.90;99.90;;;;;;5034037;28;20042;-73
2022/06/01 01:34:46;;;;;;;12.27;8.13;;;8.00;99.90;;;;;;5034968;28;20052;-73
2022/06/01 01:37:21;;;;;;;15.15;8.48;;;8.00;99.90;;;;;;5034037;28;20037;-73
2022/06/01 01:39:51;;;;;;;15.10;8.82;;;7.90;99.90;;;;;;5033967;28;20052;-73
2022/06/01 01:42:19;;;;;;;12.93;8.32;;;7.90;99.90;;;;;;5035039;28;20045;-72
2022/06/01 01:45:02;;;;;;;14.63;9.27;;;7.90;99.90;;;;;;5034938;28;20045;-72
2022/06/01 01:47:29;;;;;;;14.10;8.73;;;7.90;99.90;;;;;;5032794;28;20069;-72
2022/06/01 01:49:57;;;;;;;15.57;8.68;;;7.90;99.90;;;;;;5034841;28;20053;-73
2022/06/01 01:52:24;;;;;;;13.77;8.82;;;7.90;99.90;;;;;;5033332;28;20046;-72
2022/06/01 01:54:59;;;;;;;11.43;8.05;;;7.80;99.90;;;;;;5024625;28;20046;-72
2022/06/01 01:57:38;;;;;;;15.95;9.85;;;7.80;99.90;;;;;;5015180;28;20042;-72
2022/06/01 02:00:18;;;;;;;13.02;9.07;;;7.90;99.90;;;;;;4996990;28;20495;-72
2022/06/01 02:03:11;;;;;;;17.35;9.52;;;7.90;99.90;;;;;;5015321;28;20042;-73
2022/06/01 02:06:15;;;;;;;16.38;9.65;;;7.80;99.90;;;;;;4996949;28;20053;-73
2022/06/01 02:08:54;;;;;;;14.15;8.88;;;7.90;99.90;;;;;;5014611;28;20057;-73
2022/06/01 02:14:20;;;;;;;16.70;10.70;;;7.80;99.90;;;;;;5013682;28;20041;-72
2022/06/01 02:17:09;;;;;;;14.45;9.93;;;7.80;99.90;;;;;;4998094;28;20057;-72
2022/06/01 02:19:45;;;;;;;16.48;9.52;;;7.80;99.90;;;;;;5013979;28;20050;-72
2022/06/01 02:22:13;;;;;;;18.00;10.32;;;7.80;99.90;;;;;;5015028;28;20057;-72
2022/06/01 02:24:42;;;;;;;19.30;10.82;;;7.80;99.90;;;;;;5014846;28;20460;-73
2022/06/01 02:27:12;;;;;;;17.30;10.88;;;7.80;99.90;;;;;;5013477;28;20059;-73
2022/06/01 02:29:45;;;;;;;16.70;9.65;;;7.80;99.90;;;;;;5014484;28;20498;-72
2022/06/01 02:32:13;;;;;;;19.27;10.75;;;7.80;99.90;;;;;;5013651;28;20064;-72
2022/06/01 02:34:43;;;;;;;21.95;11.70;;;7.70;99.90;;;;;;5014588;28;20042;-73
2022/06/01 02:37:14;;;;;;;20.77;10.95;;;7.80;99.90;;;;;;5014441;28;20042;-72
2022/06/01 02:39:45;;;;;;;18.20;10.40;;;7.70;99.90;;;;;;5013619;28;20049;-72
2022/06/01 02:42:30;;;;;;;19.23;11.43;;;7.70;99.90;;;;;;5015102;28;20049;-72
2022/06/01 02:45:05;;;;;;;19.80;12.00;;;7.70;99.90;;;;;;5014613;28;20059;-72
2022/06/01 02:47:37;;;;;;;18.35;11.88;;;7.70;99.90;;;;;;5013400;28;20046;-72
2022/06/01 02:50:07;;;;;;;18.02;10.95;;;7.70;99.90;;;;;;5014703;28;20046;-73
2022/06/01 02:52:35;;;;;;;25.45;11.95;;;7.70;99.90;;;;;;4996149;28;20468;-73
2022/06/01 02:55:05;;;;;;;19.23;11.73;;;7.60;99.90;;;;;;5014645;28;20053;-72
2022/06/01 02:57:33;;;;;;;24.50;13.57;;;7.60;99.90;;;;;;5014700;28;20057;-73
2022/06/01 03:00:07;;;;;;;23.13;14.70;;;7.50;99.90;;;;;;5013383;28;20054;-72
2022/06/01 03:02:39;;;;;;;20.80;13.80;;;7.50;99.90;;;;;;5014770;28;20045;-73
2022/06/01 03:05:07;;;;;;;21.63;13.60;;;7.50;99.90;;;;;;5014749;28;20056;-72
2022/06/01 03:07:35;;;;;;;22.55;14.40;;;7.50;99.90;;;;;;5013217;28;20054;-73
2022/06/01 03:10:03;;;;;;;23.52;13.05;;;7.50;99.90;;;;;;4997111;28;20037;-72
2022/06/01 03:12:31;;;;;;;22.33;13.02;;;7.50;99.90;;;;;;5013351;28;20041;-72
2022/06/01 03:14:58;;;;;;;21.50;13.73;;;7.50;99.90;;;;;;5014164;28;20057;-73
2022/06/01 03:17:26;;;;;;;20.17;12.85;;;7.50;99.90;;;;;;5014269;28;20041;-73
2022/06/01 03:19:53;;;;;;;19.40;11.60;;;7.50;99.90;;;;;;5015119;28;20057;-73
2022/06/01 03:22:21;;;;;;;19.77;11.50;;;7.50;99.90;;;;;;5017699;28;20046;-73
2022/06/01 03:24:48;;;;;;;18.35;11.80;;;7.40;99.90;;;;;;5000287;28;20057;-72
2022/06/01 03:27:17;;;;;;;22.00;12.27;;;7.40;99.90;;;;;;4999078;28;20069;-73
2022/06/01 03:29:45;;;;;;;20.83;11.88;;;7.30;99.90;;;;;;5017533;28;20054;-73
2022/06/01 03:32:13;;;;;;;28.45;14.35;;;7.30;99.90;;;;;;5016327;28;20045;-73
2022/06/01 03:34:41;;;;;;;27.45;15.60;;;7.30;99.90;;;;;;5017441;28;20049;-73
2022/06/01 03:37:08;;;;;;;29.75;13.98;;;7.10;99.90;;;;;;5017468;28;20046;-72
2022/06/01 03:39:35;;;;;;;26.48;16.52;;;7.20;99.90;;;;;;5016370;28;20129;-73
2022/06/01 03:42:04;;;;;;;27.40;16.98;;;7.10;99.90;;;;;;5017382;28;20046;-73
2022/06/01 03:47:25;;;;;;;25.88;13.98;;;7.10;99.90;;;;;;4984304;28;20054;-73
2022/06/01 03:49:53;;;;;;;25.40;14.55;;;7.00;99.90;;;;;;5017458;28;20046;-72
2022/06/01 03:52:25;;;;;;;33.10;16.45;;;7.00;99.90;;;;;;5016273;28;20057;-73
2022/06/01 03:54:52;;;;;;;28.23;14.38;;;6.90;99.90;;;;;;5017108;28;20475;-73
2022/06/01 03:57:20;;;;;;;21.40;13.90;;;6.80;99.90;;;;;;4999866;28;20096;-73
2022/06/01 03:59:47;;;;;;;32.58;17.75;;;6.90;99.90;;;;;;5015895;28;20476;-73
2022/06/01 04:02:15;;;;;;;34.58;18.42;;;6.90;99.90;;;;;;5017091;28;20046;-73
2022/06/01 04:04:43;;;;;;;29.83;18.15;;;6.80;99.90;;;;;;5000102;28;20050;-72
2022/06/01 04:07:10;;;;;;;30.08;17.92;;;7.00;99.90;;;;;;5015929;28;20053;-73
2022/06/01 04:09:38;;;;;;;27.80;16.98;;;7.00;99.90;;;;;;5017025;28;20482;-73
2022/06/01 04:12:06;;;;;;;30.50;17.27;;;7.10;99.90;;;;;;5017074;28;20044;-73
2022/06/01 04:14:34;;;;;;;25.48;15.30;;;7.00;99.90;;;;;;5016849;28;20048;-73
2022/06/01 04:17:01;;;;;;;25.52;14.95;;;7.00;99.90;;;;;;4999707;28;20368;-73
2022/06/01 04:19:29;;;;;;;29.08;15.75;;;7.10;99.90;;;;;;5015368;28;20050;-73
2022/06/01 04:21:56;;;;;;;23.67;15.13;;;7.10;99.90;;;;;;5016593;28;20046;-73
2022/06/01 04:24:28;;;;;;;31.52;15.98;;;7.20;99.90;;;;;;4999309;28;20057;-72
2022/06/01 04:26:56;;;;;;;23.75;13.85;;;7.20;99.90;;;;;;4998438;28;20054;-73
2022/06/01 04:29:24;;;;;;;24.85;13.57;;;7.20;99.90;;;;;;4999237;28;20049;-72
2022/06/01 04:31:59;;;;;;;27.67;13.63;;;7.20;99.90;;;;;;5016203;28;20049;-73
2022/06/01 04:34:27;;;;;;;20.55;12.43;;;7.20;99.90;;;;;;5015390;28;20349;-73
2022/06/01 04:36:55;;;;;;;21.58;12.13;;;7.20;99.90;;;;;;5016372;28;20046;-73
2022/06/01 04:39:23;;;;;;;24.15;12.10;;;7.20;99.90;;;;;;5015199;28;20046;-73
2022/06/01 04:41:52;;;;;;;22.13;11.40;;;7.30;99.90;;;;;;5016299;28;20053;-72
2022/06/01 04:44:19;;;;;;;18.90;10.50;;;7.60;99.90;;;;;;5016314;28;20050;-72
2022/06/01 04:46:47;;;;;;;23.45;11.68;;;7.40;99.90;;;;;;5014944;28;20046;-73
2022/06/01 04:49:15;;;;;;;20.80;12.43;;;7.50;99.90;;;;;;5016122;28;20045;-73
2022/06/01 04:51:42;;;;;;;21.10;12.32;;;7.50;99.90;;;;;;5016375;28;20064;-73
2022/06/01 04:54:10;;;;;;;23.50;12.10;;;7.60;99.90;;;;;;4986658;28;20495;-73
2022/06/01 04:56:37;;;;;;;20.98;11.30;;;7.70;99.90;;;;;;5035544;28;20068;-73
2022/06/01 04:59:05;;;;;;;15.25;10.50;;;7.80;99.90;;;;;;5034947;28;20060;-73
2022/06/01 05:01:32;;;;;;;16.48;9.85;;;7.90;99.90;;;;;;5035589;28;20072;-73
2022/06/01 05:04:00;;;;;;;14.93;9.57;;;7.90;99.90;;;;;;5035706;28;20050;-73
2022/06/01 05:06:28;;;;;;;13.20;8.90;;;7.90;99.90;;;;;;5033517;28;20392;-73
2022/06/01 05:08:56;;;;;;;15.52;10.48;;;8.10;99.90;;;;;;5035485;28;20056;-73
2022/06/01 05:11:23;;;;;;;16.83;10.35;;;8.10;99.90;;;;;;5035351;28;20509;-73
2022/06/01 05:13:51;;;;;;;17.05;10.38;;;8.10;99.90;;;;;;5034369;28;20049;-73
2022/06/01 05:16:19;;;;;;;18.00;10.27;;;8.30;99.90;;;;;;5018472;28;20478;-73
2022/06/01 05:18:47;;;;;;;16.98;8.75;;;8.30;99.90;;;;;;5034830;28;20048;-73
2022/06/01 05:21:14;;;;;;;17.17;9.48;;;8.30;99.90;;;;;;5035503;28;20456;-73
2022/06/01 05:23:42;;;;;;;13.95;8.63;;;8.40;99.90;;;;;;5035410;28;20049;-73
2022/06/01 05:26:09;;;;;;;13.70;9.73;;;8.40;99.90;;;;;;5034316;28;20448;-72
2022/06/01 05:28:37;;;;;;;16.35;9.27;;;8.50;99.90;;;;;;5035446;28;20048;-73
2022/06/01 05:31:10;;;;;;;14.45;10.25;;;8.60;99.90;;;;;;5035065;28;20064;-73
2022/06/01 05:33:40;;;;;;;15.48;8.90;;;8.60;99.90;;;;;;5033869;28;20052;-73
2022/06/01 05:36:07;;;;;;;13.85;8.02;;;8.70;99.90;;;;;;5035158;28;20052;-73
2022/06/01 05:38:35;;;;;;;13.32;7.85;;;8.80;99.90;;;;;;5035081;28;20045;-73
2022/06/01 05:41:03;;;;;;;12.27;8.05;;;8.80;99.90;;;;;;5032900;28;20057;-73
2022/06/01 05:43:30;;;;;;;11.77;7.75;;;8.90;99.90;;;;;;5034834;28;20057;-73
2022/06/01 05:45:58;;;;;;;14.55;7.60;;;8.90;99.90;;;;;;5033856;28;20459;-73
2022/06/01 05:48:25;;;;;;;14.05;8.23;;;9.10;99.90;;;;;;5034983;28;20045;-73
2022/06/01 05:50:58;;;;;;;13.32;7.15;;;9.20;99.90;;;;;;5035057;28;20045;-73
2022/06/01 05:53:26;;;;;;;13.57;7.20;;;9.20;99.90;;;;;;5033025;28;20045;-73
2022/06/01 05:55:54;;;;;;;11.98;6.35;;;9.30;99.90;;;;;;5033684;28;20052;-73
2022/06/01 05:58:24;;;;;;;10.88;5.88;;;9.30;99.90;;;;;;5035036;28;20056;-73
2022/06/01 06:00:53;;;;;;;13.40;6.20;;;9.30;99.90;;;;;;5032934;28;20046;-73
2022/06/01 06:03:23;;;;;;;10.07;6.47;;;9.40;99.90;;;;;;5034543;28;20049;-73
2022/06/01 06:06:17;;;;;;;12.90;7.10;;;9.40;99.90;;;;;;5034428;28;20056;-72
2022/06/01 06:08:55;;;;;;;10.07;6.32;;;9.40;99.90;;;;;;5034405;28;20064;-73
2022/06/01 06:11:26;;;;;;;10.13;6.90;;;9.40;99.90;;;;;;5034481;28;20056;-73
2022/06/01 06:13:56;;;;;;;14.77;7.93;;;9.20;99.90;;;;;;5033264;28;20042;-73
2022/06/01 06:16:24;;;;;;;13.10;6.40;;;9.30;99.90;;;;;;5033514;28;20048;-73
2022/06/01 06:18:56;;;;;;;10.15;6.97;;;9.40;99.90;;;;;;5034092;28;20057;-73
2022/06/01 06:21:25;;;;;;;11.38;6.53;;;9.40;99.90;;;;;;5034178;28;20045;-73
2022/06/01 06:24:01;;;;;;;11.63;6.28;;;9.40;99.90;;;;;;5034970;28;20046;-73
2022/06/01 06:26:29;;;;;;;12.48;6.25;;;9.40;99.90;;;;;;5032596;28;20050;-73
2022/06/01 06:28:59;;;;;;;9.85;6.85;;;9.40;99.90;;;;;;5034783;28;20049;-73
2022/06/01 06:31:27;;;;;;;15.88;6.65;;;9.40;99.90;;;;;;5035096;28;20052;-73
2022/06/01 06:33:56;;;;;;;11.30;6.80;;;9.40;99.90;;;;;;5032895;28;20038;-73
2022/06/01 06:36:24;;;;;;;14.25;8.25;;;9.40;99.90;;;;;;5034130;28;20045;-73
2022/06/01 06:38:52;;;;;;;10.80;6.70;;;9.40;99.90;;;;;;5033227;28;20054;-73
2022/06/01 06:41:21;;;;;;;14.25;9.32;;;9.50;99.90;;;;;;5034650;28;20053;-73
2022/06/01 06:43:48;;;;;;;13.32;7.15;;;9.60;99.90;;;;;;5034704;28;20049;-73
2022/06/01 06:46:19;;;;;;;12.05;7.07;;;9.70;99.90;;;;;;5033186;28;20046;-73
2022/06/01 06:48:48;;;;;;;14.00;7.28;;;9.90;99.90;;;;;;5034417;28;20049;-73
2022/06/01 06:51:17;;;;;;;12.40;6.53;;;10.10;99.90;;;;;;5033381;28;20052;-73
2022/06/01 06:53:45;;;;;;;10.25;5.78;;;10.40;99.90;;;;;;5032585;28;20045;-73
2022/06/01 06:56:14;;;;;;;8.43;5.30;;;10.60;99.90;;;;;;5018833;28;20046;-73
2022/06/01 06:58:43;;;;;;;10.68;6.65;;;10.70;99.90;;;;;;5018259;28;20042;-73
2022/06/01 07:01:11;;;;;;;13.70;6.32;;;10.90;99.90;;;;;;5017298;28;20383;-73
2022/06/01 07:03:38;;;;;;;8.95;5.70;;;11.10;99.90;;;;;;5018325;28;20061;-73
2022/06/01 07:06:09;;;;;;;10.55;6.38;;;11.30;99.90;;;;;;5017001;28;20049;-73
2022/06/01 07:08:44;;;;;;;12.20;6.68;;;11.50;99.90;;;;;;5018354;28;20494;-73
2022/06/01 07:11:13;;;;;;;11.35;6.43;;;11.60;99.90;;;;;;5001008;28;20057;-73
2022/06/01 07:13:41;;;;;;;11.43;6.45;;;11.70;99.90;;;;;;5016302;28;20050;-73
2022/06/01 07:16:21;;;;;;;10.45;6.95;;;11.80;99.90;;;;;;5017645;28;20398;-72
2022/06/01 07:18:50;;;;;;;10.30;7.22;;;11.90;99.90;;;;;;5017365;28;20053;-76
2022/06/01 07:21:19;;;;;;;14.38;6.70;;;12.00;99.90;;;;;;5000622;28;20056;-73
2022/06/01 07:23:48;;;;;;;12.10;6.38;;;12.10;99.90;;;;;;5018038;28;20064;-72
2022/06/01 07:26:21;;;;;;;10.25;6.38;;;12.20;99.90;;;;;;5016809;28;20379;-72
2022/06/01 07:28:49;;;;;;;12.00;6.90;;;12.20;99.90;;;;;;5000722;28;20367;-72
2022/06/01 07:31:17;;;;;;;12.20;6.40;;;12.30;99.90;;;;;;5017679;28;20046;-72
2022/06/01 07:33:46;;;;;;;;;;;12.30;99.90;;;;;;5017115;28;20367;-73
2022/06/01 07:36:16;;;;;;;13.48;6.47;;;12.30;99.90;;;;;;5000350;28;19921;-72
2022/06/01 07:44:54;;;;;;;9.85;6.75;;;12.10;99.90;;;;;;5017337;28;20050;-72
2022/06/01 07:47:22;;;;;;;10.77;6.05;;;12.10;99.90;;;;;;5020384;28;20487;-74
2022/06/01 07:50:11;;;;;;;9.43;5.90;;;12.20;99.90;;;;;;5034028;28;20049;-74
2022/06/01 07:52:59;;;;;;;10.23;6.15;;;12.30;99.90;;;;;;5034226;28;20041;-74
2022/06/01 07:55:28;;;;;;;12.02;5.85;;;12.40;99.90;;;;;;5017169;28;20465;-74
2022/06/01 07:57:56;;;;;;;10.82;5.40;;;12.40;99.90;;;;;;4999872;28;20392;-73
2022/06/01 08:00:23;;;;;;;11.75;5.22;;;12.40;99.90;;;;;;4999051;28;20050;-73
2022/06/01 08:02:51;;;;;;;8.27;5.60;;;12.60;99.90;;;;;;5017441;28;20045;-73
2022/06/01 08:05:21;;;;;;;9.95;4.90;;;12.80;99.90;;;;;;5033254;28;20053;-74
2022/06/01 08:07:49;;;;;;;10.40;5.15;;;13.00;99.90;;;;;;5015812;28;20050;-74
2022/06/01 08:10:20;;;;;;;8.55;4.85;;;13.20;99.90;;;;;;5016921;28;20052;-74
2022/06/01 08:13:06;;;;;;;8.60;4.90;;;13.40;99.90;;;;;;5015603;28;20041;-73
2022/06/01 08:15:43;;;;;;;7.25;4.60;;;13.60;99.90;;;;;;5017043;28;20487;-75
2022/06/01 08:18:13;;;;;;;12.55;4.63;;;13.80;99.90;;;;;;5016868;28;20041;-75
2022/06/01 08:20:42;;;;;;;6.45;3.72;;;14.00;99.90;;;;;;4998562;28;20349;-75
2022/06/01 08:23:15;;;;;;;7.03;3.53;;;14.10;99.90;;;;;;5030173;28;20049;-75
2022/06/01 08:25:43;;;;;;;6.45;3.67;;;14.10;99.90;;;;;;4998207;28;20069;-72
2022/06/01 08:28:10;;;;;;;5.90;3.72;;;14.10;99.90;;;;;;5015514;28;20490;-72
2022/06/01 08:30:40;;;;;;;9.38;5.35;;;14.10;99.90;;;;;;5016730;28;20049;-73
2022/06/01 08:33:08;;;;;;;7.80;4.30;;;14.20;99.90;;;;;;5014103;28;20057;-73
2022/06/01 08:35:40;;;;;;;8.73;4.32;;;14.20;99.90;;;;;;5016514;28;20046;-73
2022/06/01 08:38:07;;;;;;;8.55;4.18;;;14.20;99.90;;;;;;5016520;28;20052;-73
2022/06/01 08:40:56;;;;;;;9.65;4.30;;;14.30;99.90;;;;;;4998048;28;20054;-73
2022/06/01 08:43:28;;;;;;;9.60;4.00;;;14.40;99.90;;;;;;5016405;28;20076;-72
2022/06/01 08:46:00;;;;;;;7.55;3.53;;;14.50;99.90;;;;;;5015228;28;20411;-73
2022/06/01 08:48:34;;;;;;;7.80;4.03;;;14.70;99.90;;;;;;5016271;28;20068;-73
2022/06/01 08:51:03;;;;;;;7.72;3.85;;;14.70;99.90;;;;;;5016174;28;20372;-73
2022/06/01 08:53:30;;;;;;;13.30;4.05;;;14.70;99.90;;;;;;5015072;28;20046;-72
2022/06/01 08:56:23;;;;;;;5.60;3.67;;;14.80;99.90;;;;;;5034625;28;20053;-73
2022/06/01 08:59:04;;;;;;;7.38;3.47;;;14.80;99.90;;;;;;5054610;28;20041;-72
2022/06/01 09:01:59;;;;;;;10.75;3.30;;;14.90;99.90;;;;;;5055865;28;20371;-72
2022/06/01 09:04:56;;;;;;;5.47;2.60;;;14.90;99.90;;;;;;5055912;28;20052;-73
2022/06/01 09:07:47;;;;;;;8.57;3.00;;;14.90;99.90;;;;;;5054756;28;20550;-72
2022/06/01 09:10:35;;;;;;;6.00;2.60;;;14.90;99.90;;;;;;5055480;28;20411;-72
2022/06/01 09:13:15;;;;;;;4.82;2.33;;;15.00;99.90;;;;;;5053853;28;20052;-72
2022/06/01 09:15:58;;;;;;;5.40;2.15;;;15.00;99.90;;;;;;5056090;28;20102;-75
2022/06/01 09:18:47;;;;;;;5.75;2.35;;;15.00;99.90;;;;;;5053348;28;20064;-76
2022/06/01 09:24:31;;;;;;;5.40;2.15;;;15.00;99.90;;;;;;5055211;28;20044;-75
2022/06/01 09:27:01;;;;;;;5.40;2.58;;;15.00;99.90;;;;;;5053604;28;20052;-72
2022/06/01 09:29:32;;;;;;;6.75;2.65;;;14.90;99.90;;;;;;5055138;28;20371;-72
2022/06/01 09:32:06;;;;;;;6.68;2.50;;;14.90;99.90;;;;;;5054152;28;20057;-72
2022/06/01 09:34:47;;;;;;;5.63;1.90;;;14.80;99.90;;;;;;5038045;28;20048;-72
2022/06/01 09:37:27;;;;;;;7.72;2.35;;;14.80;99.90;;;;;;5044472;28;20045;-73
2022/06/01 09:40:00;;;;;;;7.15;2.00;;;14.80;99.90;;;;;;5036880;28;20045;-72
2022/06/01 09:42:41;;;;;;;6.28;2.10;;;15.00;99.90;;;;;;5053778;28;20467;-72
2022/06/01 09:45:24;;;;;;;5.72;2.03;;;15.20;99.90;;;;;;5054194;28;20049;-72
2022/06/01 09:47:54;;;;;;;4.40;2.03;;;15.40;99.90;;;;;;5053527;28;20060;-71
2022/06/01 09:50:26;;;;;;;4.60;1.77;;;15.50;99.90;;;;;;5054850;28;20045;-72
2022/06/01 09:53:22;;;;;;;4.00;1.63;;;15.40;99.90;;;;;;5052833;28;20052;-73
2022/06/01 09:56:00;;;;;;;4.13;1.95;;;15.30;99.90;;;;;;5036063;28;20046;-73
2022/06/01 10:06:56;;;;;;;6.85;1.60;;;15.30;99.90;;;;;;5031117;28;20041;-72
2022/06/01 10:09:32;;;;;;;5.47;2.00;;;15.40;99.90;;;;;;5034006;28;20048;-73
2022/06/01 10:12:41;;;;;;;6.05;1.90;;;15.60;99.90;;;;;;5034165;28;20049;-73
2022/06/01 10:15:24;;;;;;;5.45;1.52;;;15.80;99.90;;;;;;5006644;28;20054;-72
2022/06/01 10:17:58;;;;;;;3.53;1.33;;;16.00;99.90;;;;;;5034421;28;20045;-73
2022/06/01 10:20:37;;;;;;;6.07;1.70;;;16.20;99.90;;;;;;5016200;28;20372;-72
2022/06/01 10:23:09;;;;;;;5.75;2.00;;;16.40;99.90;;;;;;5034817;28;20049;-72
2022/06/01 10:25:43;;;;;;;4.80;1.80;;;16.40;99.90;;;;;;5016275;28;20468;-72
2022/06/01 10:28:15;;;;;;;5.30;1.60;;;16.50;99.90;;;;;;5035747;28;20052;-73
2022/06/01 10:31:07;;;;;;;9.27;1.83;;;16.40;99.90;;;;;;5038628;28;20053;-73
2022/06/01 10:33:43;;;;;;;4.55;1.88;;;16.20;99.90;;;;;;5037214;28;20068;-73
2022/06/01 10:36:20;;;;;;;7.13;2.00;;;16.20;99.90;;;;;;5038449;28;20475;-72
2022/06/01 10:39:23;;;;;;;8.32;1.35;;;16.20;99.90;;;;;;5037570;28;20056;-72
2022/06/01 10:42:00;;;;;;;5.15;1.38;;;16.20;99.90;;;;;;5015846;28;20061;-74
2022/06/01 10:44:44;;;;;;;3.20;1.23;;;16.20;99.90;;;;;;5004646;28;20049;-75
2022/06/01 10:47:20;;;;;;;5.50;1.52;;;16.10;99.90;;;;;;5037159;28;20050;-74
2022/06/01 10:50:06;;;;;;;4.45;1.50;;;16.10;99.90;;;;;;5038327;28;20041;-73
2022/06/01 10:52:38;;;;;;;5.80;1.30;;;15.90;99.90;;;;;;5037009;28;20064;-73
2022/06/01 10:55:17;;;;;;;7.00;1.50;;;15.80;99.90;;;;;;5039493;28;20053;-73
2022/06/01 10:57:47;;;;;;;5.63;1.35;;;15.60;99.90;;;;;;5037925;28;20045;-73
2022/06/01 11:00:20;;;;;;;3.88;1.40;;;15.30;99.90;;;;;;5033645;28;20057;-73
2022/06/01 11:03:22;;;;;;;4.32;1.33;;;15.10;99.90;;;;;;5018131;28;20060;-73
2022/06/01 11:06:30;;;;;;;6.65;1.48;;;14.90;99.90;;;;;;5017718;28;20054;-72
2022/06/01 11:09:22;;;;;;;5.68;1.30;;;14.80;99.90;;;;;;4995614;28;20050;-73
2022/06/01 11:12:30;;;;;;;3.97;1.17;;;14.60;99.90;;;;;;5001092;28;20068;-73
2022/06/01 11:15:00;;;;;;;3.63;1.30;;;14.50;99.90;;;;;;5004004;28;20057;-73
2022/06/01 11:18:01;;;;;;;4.95;1.45;;;14.40;99.90;;;;;;5018730;28;20049;-73
2022/06/01 11:20:52;;;;;;;3.65;1.40;;;14.40;99.90;;;;;;5017072;28;20041;-73
2022/06/01 11:23:53;;;;;;;6.53;2.00;;;14.40;99.90;;;;;;5018455;28;20046;-73
2022/06/01 11:26:36;;;;;;;6.55;2.25;;;14.40;99.90;;;;;;4999734;28;20046;-72
2022/06/01 11:29:28;;;;;;;8.38;2.75;;;14.40;99.90;;;;;;5018310;28;20045;-73
2022/06/01 11:32:03;;;;;;;6.88;2.58;;;14.40;99.90;;;;;;5017697;28;20046;-72
2022/06/01 11:35:12;;;;;;;8.32;2.53;;;14.40;99.90;;;;;;5016743;28;20490;-72
2022/06/01 11:37:52;;;;;;;5.97;2.45;;;14.40;99.90;;;;;;5015218;28;20050;-73
2022/06/01 11:40:33;;;;;;;8.73;2.40;;;14.40;99.90;;;;;;5035795;28;20471;-72
2022/06/01 11:43:07;;;;;;;6.15;2.67;;;14.40;99.90;;;;;;5037203;28;20041;-73
2022/06/01 11:45:47;;;;;;;4.47;2.15;;;14.40;99.90;;;;;;5036445;28;20045;-73
2022/06/01 11:48:23;;;;;;;6.20;2.25;;;14.50;99.90;;;;;;5037570;28;20053;-72
2022/06/01 11:50:57;;;;;;;4.82;1.90;;;14.50;99.90;;;;;;5037747;28;20052;-72
2022/06/01 11:53:42;;;;;;;7.78;2.30;;;14.60;99.90;;;;;;5018864;28;20494;-72
2022/06/01 11:56:25;;;;;;;5.28;2.30;;;14.70;99.90;;;;;;5037557;28;20064;-73
2022/06/01 11:59:04;;;;;;;5.57;2.50;;;15.00;99.90;;;;;;5035965;28;20046;-73
2022/06/01 12:02:16;;;;;;;6.57;2.30;;;15.20;99.90;;;;;;5006236;28;20473;-72
2022/06/01 12:05:01;;;;;;;4.32;1.83;;;15.60;99.90;;;;;;5017283;28;20053;-73
2022/06/01 12:07:35;;;;;;;6.18;2.08;;;15.90;99.90;;;;;;5016441;28;20045;-73
2022/06/01 12:10:20;;;;;;;4.85;1.85;;;16.10;99.90;;;;;;5015557;28;20046;-73
2022/06/01 12:13:24;;;;;;;6.03;1.52;;;16.30;99.90;;;;;;5015796;28;20053;-73
2022/06/01 12:16:04;;;;;;;2.97;1.65;;;16.40;99.90;;;;;;5014235;28;20050;-73
2022/06/01 12:18:33;;;;;;;9.30;2.30;;;16.50;99.90;;;;;;5016679;28;20042;-73
2022/06/01 12:21:25;;;;;;;5.35;1.90;;;16.40;99.90;;;;;;5015622;28;20050;-73
2022/06/01 12:30:17;;;;;;;5.63;1.70;;;16.60;99.90;;;;;;5016436;28;20384;-72
2022/06/01 12:32:59;;;;;;;7.93;2.20;;;16.80;99.90;;;;;;5015496;28;20042;-75
2022/06/01 12:35:42;;;;;;;5.78;1.80;;;17.00;99.90;;;;;;4999484;28;20448;-74
2022/06/01 12:38:35;;;;;;;2.85;1.65;;;17.10;99.90;;;;;;4999061;28;20473;-74
2022/06/01 12:41:14;;;;;;;4.22;1.75;;;17.30;99.90;;;;;;5015246;28;20046;-75
2022/06/01 12:43:50;;;;;;;6.93;1.80;;;17.30;99.90;;;;;;5008325;28;20052;-75
2022/06/01 12:46:39;;;;;;;5.53;1.60;;;17.40;99.90;;;;;;5034668;28;20049;-75
2022/06/01 12:49:23;;;;;;;5.80;1.80;;;17.50;99.90;;;;;;5025180;28;20045;-73
2022/06/01 12:51:56;;;;;;;7.55;1.67;;;17.60;99.90;;;;;;5035598;28;20053;-75
2022/06/01 12:54:35;;;;;;;4.57;1.90;;;17.80;99.90;;;;;;5034487;28;20441;-72
2022/06/01 12:57:06;;;;;;;5.50;1.92;;;18.10;99.90;;;;;;5018395;28;20050;-73
2022/06/01 12:59:40;;;;;;;3.20;1.58;;;18.30;99.90;;;;;;5034801;28;20052;-74
2022/06/01 13:02:10;;;;;;;4.57;1.75;;;18.60;99.90;;;;;;5021371;28;20037;-73
2022/06/01 13:04:49;;;;;;;3.72;2.00;;;18.80;99.90;;;;;;5016165;28;20047;-73
2022/06/01 13:07:17;;;;;;;3.42;1.80;;;19.00;99.90;;;;;;4997575;28;20053;-73
2022/06/01 13:09:45;;;;;;;;;;;19.00;99.90;;;;;;5015869;28;20114;-73
2022/06/01 13:12:17;;;;;;;2.97;1.67;;;19.00;99.90;;;;;;5014935;28;19921;-73
2022/06/01 13:14:45;;;;;;;6.45;2.05;;;19.00;99.90;;;;;;5016010;28;20352;-73
2022/06/01 13:17:18;;;;;;;2.97;1.40;;;19.00;99.90;;;;;;4998505;28;20455;-74
2022/06/01 13:20:00;;;;;;;4.85;1.30;;;19.10;99.90;;;;;;5014402;28;20041;-73
2022/06/01 13:22:36;;;;;;;2.42;0.90;;;19.30;99.90;;;;;;5015808;28;20041;-74
2022/06/01 13:25:08;;;;;;;1.60;0.80;;;19.70;99.90;;;;;;5015306;28;20054;-75
2022/06/01 13:27:37;;;;;;;3.55;1.60;;;20.80;99.90;;;;;;4997184;28;20464;-75
2022/06/01 13:30:06;;;;;;;4.18;1.63;;;21.90;98.50;;;;;;5014420;28;20061;-74
2022/06/01 13:32:40;;;;;;;2.50;1.50;;;22.90;96.00;;;;;;4997443;28;20064;-76
2022/06/01 13:35:26;;;;;;;4.95;1.70;;;23.80;93.20;;;;;;5015641;28;20053;-75
2022/06/01 13:37:56;;;;;;;6.28;1.52;;;23.80;92.90;;;;;;5023660;28;20033;-72
2022/06/01 13:40:34;;;;;;;4.75;1.42;;;23.10;93.80;;;;;;5033994;28;20480;-72
2022/06/01 13:43:04;;;;;;;3.25;1.33;;;23.00;95.10;;;;;;5034634;28;20377;-72
2022/06/01 13:45:40;;;;;;;7.15;1.40;;;22.20;93.80;;;;;;5033997;28;20052;-72
2022/06/01 13:48:35;;;;;;;4.53;1.40;;;22.10;95.00;;;;;;5034564;28;20060;-74
2022/06/01 13:51:13;;;;;;;3.55;1.20;;;22.60;91.00;;;;;;5034659;28;20041;-72